This is the latest recevied weather packets stored in our database for station/object SV9TNF-2. If no packets are shown the sender has not sent any weather packets the latest 1 day(s).
| Time | Temp. | Humidity | Pressure | Rain* | Wind** | Luminosity | Snow |
|---|---|---|---|---|---|---|---|
| 1778055624 | 24.44° C | 41% | 1023.4 hPa | 0 mm | 1.79 m/s, 87° | - | - |
| 1778055325 | 25.56° C | 42% | 1023.4 hPa | 0 mm | 1.79 m/s, 136° | - | - |
| 1778055024 | 25.56° C | 39% | 1023.4 hPa | 0 mm | 0.45 m/s, 51° | - | - |
| 1778054425 | 25.56° C | 47% | 1023.4 hPa | 0 mm | 0.89 m/s, 93° | - | - |
| 1778054124 | 24.44° C | 48% | 1023.4 hPa | 0 mm | 2.68 m/s, 90° | - | - |
| 1778053824 | 24.44° C | 45% | 1023.4 hPa | 0 mm | 1.79 m/s, 109° | - | - |
| 1778053524 | 26.11° C | 33% | 1023 hPa | 0 mm | 0 m/s | - | - |
| 1778053224 | 27.22° C | 33% | 1023 hPa | 0 mm | 0.45 m/s, 61° | - | - |
| 1778052924 | 26.67° C | 34% | 1023 hPa | 0 mm | 0.45 m/s, 77° | - | - |
| 1778051723 | 25° C | 38% | 1023 hPa | 0 mm | 0.45 m/s, 219° | - | - |
| 1778050823 | 26.11° C | 32% | 1022.7 hPa | 0 mm | 0.45 m/s, 330° | - | - |
| 1778050523 | 25.56° C | 33% | 1022.7 hPa | 0 mm | 1.34 m/s, 11° | - | - |
| 1778050223 | 26.67° C | 31% | 1022.7 hPa | 0 mm | 1.34 m/s, 275° | - | - |
| 1778049923 | 26.67° C | 34% | 1022.7 hPa | 0 mm | 0.45 m/s, 249° | - | - |
| 1778049323 | 25.56° C | 36% | 1022.7 hPa | 0 mm | 2.68 m/s, 266° | - | - |
| 1778047222 | 26.11° C | 29% | 1022.7 hPa | 0 mm | 0.45 m/s, 241° | - | - |
| 1778046622 | 24.44° C | 33% | 1022.7 hPa | 0 mm | 0 m/s | - | - |
| 1778045421 | 22.22° C | 42% | 1022.7 hPa | 0 mm | 0 m/s | - | - |
| 1778044822 | 20.56° C | 43% | 1022.7 hPa | 0 mm | 2.68 m/s, 165° | - | - |
| 1778044221 | 19.44° C | 46% | 1022.7 hPa | 0 mm | 4.02 m/s, 221° | - | - |
| 1778043921 | 19.44° C | 45% | 1022.7 hPa | 0 mm | 4.02 m/s, 117° | - | - |
| 1778043621 | 18.89° C | 45% | 1022.7 hPa | 0 mm | 4.92 m/s, 183° | - | - |
| 1778043321 | 18.33° C | 44% | 1022.7 hPa | 0 mm | 6.26 m/s, 192° | - | - |
| 1778042720 | 17.22° C | 46% | 1022.7 hPa | 0 mm | 6.26 m/s, 160° | - | - |
| 1778042420 | 16.67° C | 46% | 1022.7 hPa | 0 mm | 5.81 m/s, 256° | - | - |
* Rain latest hour (hover to see other rain measurements)
** Current wind speed in m/s (hover to see current wind gust speed)